sensor_id;sensor_type;location;lat;lon;timestamp;temperature;humidity
23633;DHT22;11993;48.748;9.166;2023-03-01T00:01:11;0.10;67.60
23633;DHT22;11993;48.748;9.166;2023-03-01T00:03:36;0.10;67.60
23633;DHT22;11993;48.748;9.166;2023-03-01T00:06:03;0.00;68.20
23633;DHT22;11993;48.748;9.166;2023-03-01T00:08:28;0.10;68.10
23633;DHT22;11993;48.748;9.166;2023-03-01T00:11:14;0.10;68.30
23633;DHT22;11993;48.748;9.166;2023-03-01T00:13:40;0.10;67.90
23633;DHT22;11993;48.748;9.166;2023-03-01T00:16:08;0.10;67.60
23633;DHT22;11993;48.748;9.166;2023-03-01T00:18:34;0.10;67.90
23633;DHT22;11993;48.748;9.166;2023-03-01T00:21:00;0.20;68.00
23633;DHT22;11993;48.748;9.166;2023-03-01T00:23:26;0.10;68.10
23633;DHT22;11993;48.748;9.166;2023-03-01T00:25:52;0.10;68.40
23633;DHT22;11993;48.748;9.166;2023-03-01T00:28:18;0.10;67.90
23633;DHT22;11993;48.748;9.166;2023-03-01T00:30:44;0.00;68.40
23633;DHT22;11993;48.748;9.166;2023-03-01T00:33:10;0.00;68.20
23633;DHT22;11993;48.748;9.166;2023-03-01T00:35:36;0.00;68.90
23633;DHT22;11993;48.748;9.166;2023-03-01T00:38:02;0.00;68.60
23633;DHT22;11993;48.748;9.166;2023-03-01T00:40:31;0.10;68.50
23633;DHT22;11993;48.748;9.166;2023-03-01T00:42:57;0.20;68.40
23633;DHT22;11993;48.748;9.166;2023-03-01T00:45:22;0.10;68.00
23633;DHT22;11993;48.748;9.166;2023-03-01T00:47:49;0.10;68.20
23633;DHT22;11993;48.748;9.166;2023-03-01T00:50:15;0.20;68.00
23633;DHT22;11993;48.748;9.166;2023-03-01T00:52:40;0.20;67.80
23633;DHT22;11993;48.748;9.166;2023-03-01T00:55:06;0.20;67.70
23633;DHT22;11993;48.748;9.166;2023-03-01T00:57:32;0.30;67.70
23633;DHT22;11993;48.748;9.166;2023-03-01T00:59:58;0.10;67.60
23633;DHT22;11993;48.748;9.166;2023-03-01T01:02:24;0.20;67.90
23633;DHT22;11993;48.748;9.166;2023-03-01T01:04:50;0.10;68.00
23633;DHT22;11993;48.748;9.166;2023-03-01T01:07:16;0.20;67.90
23633;DHT22;11993;48.748;9.166;2023-03-01T01:09:41;0.20;68.20
23633;DHT22;11993;48.748;9.166;2023-03-01T01:12:07;0.20;67.80
23633;DHT22;11993;48.748;9.166;2023-03-01T01:14:33;0.00;68.20
23633;DHT22;11993;48.748;9.166;2023-03-01T01:16:59;0.00;68.40
23633;DHT22;11993;48.748;9.166;2023-03-01T01:19:25;0.00;68.60
23633;DHT22;11993;48.748;9.166;2023-03-01T01:21:51;0.00;68.70
23633;DHT22;11993;48.748;9.166;2023-03-01T01:24:17;0.00;69.10
23633;DHT22;11993;48.748;9.166;2023-03-01T01:26:43;0.00;68.90
23633;DHT22;11993;48.748;9.166;2023-03-01T01:29:09;0.00;68.80
23633;DHT22;11993;48.748;9.166;2023-03-01T01:31:36;0.00;69.00
23633;DHT22;11993;48.748;9.166;2023-03-01T01:34:04;-3276.60;69.60
23633;DHT22;11993;48.748;9.166;2023-03-01T01:36:32;-3276.40;70.60
23633;DHT22;11993;48.748;9.166;2023-03-01T01:38:58;-3276.50;70.10
23633;DHT22;11993;48.748;9.166;2023-03-01T01:41:26;-3276.60;69.60
23633;DHT22;11993;48.748;9.166;2023-03-01T01:44:12;-3276.60;69.60
23633;DHT22;11993;48.748;9.166;2023-03-01T01:47:02;-3276.60;69.80
23633;DHT22;11993;48.748;9.166;2023-03-01T01:49:51;-3276.60;70.10
23633;DHT22;11993;48.748;9.166;2023-03-01T01:52:24;-3276.50;70.20
23633;DHT22;11993;48.748;9.166;2023-03-01T01:54:57;-3276.40;70.40
23633;DHT22;11993;48.748;9.166;2023-03-01T02:00:08;-3276.30;71.50
23633;DHT22;11993;48.748;9.166;2023-03-01T02:02:33;-3276.40;71.00
23633;DHT22;11993;48.748;9.166;2023-03-01T02:07:48;-3276.60;70.80
23633;DHT22;11993;48.748;9.166;2023-03-01T02:10:15;-3276.60;70.90
23633;DHT22;11993;48.748;9.166;2023-03-01T02:12:41;-3276.60;70.70
23633;DHT22;11993;48.748;9.166;2023-03-01T02:15:07;-3276.70;70.50
23633;DHT22;11993;48.748;9.166;2023-03-01T02:17:33;-3276.70;70.70
23633;DHT22;11993;48.748;9.166;2023-03-01T02:20:20;-3276.60;70.60
23633;DHT22;11993;48.748;9.166;2023-03-01T02:22:47;-3276.40;71.30
23633;DHT22;11993;48.748;9.166;2023-03-01T02:30:33;-3276.40;71.50
23633;DHT22;11993;48.748;9.166;2023-03-01T02:33:00;-3276.50;71.60
23633;DHT22;11993;48.748;9.166;2023-03-01T02:35:38;-3276.50;71.50
23633;DHT22;11993;48.748;9.166;2023-03-01T02:38:07;-3276.70;71.20
23633;DHT22;11993;48.748;9.166;2023-03-01T02:40:34;-3276.60;71.30
23633;DHT22;11993;48.748;9.166;2023-03-01T02:43:01;-3276.60;71.20
23633;DHT22;11993;48.748;9.166;2023-03-01T02:45:30;-3276.60;71.10
23633;DHT22;11993;48.748;9.166;2023-03-01T02:47:57;-3276.50;71.50
23633;DHT22;11993;48.748;9.166;2023-03-01T02:50:43;-3276.50;71.10
23633;DHT22;11993;48.748;9.166;2023-03-01T02:53:21;-3276.50;71.30
23633;DHT22;11993;48.748;9.166;2023-03-01T02:55:48;-3276.50;71.60
23633;DHT22;11993;48.748;9.166;2023-03-01T02:58:15;-3276.50;71.50
23633;DHT22;11993;48.748;9.166;2023-03-01T03:00:42;-3276.50;71.40
23633;DHT22;11993;48.748;9.166;2023-03-01T03:03:20;-3276.50;71.40
23633;DHT22;11993;48.748;9.166;2023-03-01T03:05:46;-3276.60;71.50
23633;DHT22;11993;48.748;9.166;2023-03-01T03:08:13;-3276.60;71.60
23633;DHT22;11993;48.748;9.166;2023-03-01T03:10:42;-3276.50;71.70
23633;DHT22;11993;48.748;9.166;2023-03-01T03:13:12;-3276.50;71.60
23633;DHT22;11993;48.748;9.166;2023-03-01T03:15:39;-3276.50;71.50
23633;DHT22;11993;48.748;9.166;2023-03-01T03:18:09;-3276.60;71.30
23633;DHT22;11993;48.748;9.166;2023-03-01T03:20:35;-3276.50;71.20
23633;DHT22;11993;48.748;9.166;2023-03-01T03:23:01;-3276.50;71.70
23633;DHT22;11993;48.748;9.166;2023-03-01T03:25:28;-3276.50;71.90
23633;DHT22;11993;48.748;9.166;2023-03-01T03:27:54;-3276.60;71.90
23633;DHT22;11993;48.748;9.166;2023-03-01T03:30:24;-3276.70;71.00
23633;DHT22;11993;48.748;9.166;2023-03-01T03:32:50;-3276.70;70.70
23633;DHT22;11993;48.748;9.166;2023-03-01T03:35:24;-3276.60;70.80
23633;DHT22;11993;48.748;9.166;2023-03-01T03:37:50;-3276.60;71.10
23633;DHT22;11993;48.748;9.166;2023-03-01T03:40:39;-3276.60;71.20
23633;DHT22;11993;48.748;9.166;2023-03-01T03:43:11;-3276.70;71.20
23633;DHT22;11993;48.748;9.166;2023-03-01T03:45:37;-3276.60;71.60
23633;DHT22;11993;48.748;9.166;2023-03-01T03:48:05;-3276.70;71.40
23633;DHT22;11993;48.748;9.166;2023-03-01T03:50:32;-3276.60;71.50
23633;DHT22;11993;48.748;9.166;2023-03-01T03:53:00;-3276.70;71.60
23633;DHT22;11993;48.748;9.166;2023-03-01T03:55:26;-3276.70;71.40
23633;DHT22;11993;48.748;9.166;2023-03-01T03:57:57;-3276.60;71.70
23633;DHT22;11993;48.748;9.166;2023-03-01T04:00:23;0.00;71.70
23633;DHT22;11993;48.748;9.166;2023-03-01T04:02:50;0.00;71.30
23633;DHT22;11993;48.748;9.166;2023-03-01T04:05:18;0.00;71.10
23633;DHT22;11993;48.748;9.166;2023-03-01T04:07:45;0.10;71.00
23633;DHT22;11993;48.748;9.166;2023-03-01T04:10:17;0.10;70.70
23633;DHT22;11993;48.748;9.166;2023-03-01T04:12:43;0.00;71.00
23633;DHT22;11993;48.748;9.166;2023-03-01T04:15:11;0.10;70.70
23633;DHT22;11993;48.748;9.166;2023-03-01T04:17:46;0.10;70.90
23633;DHT22;11993;48.748;9.166;2023-03-01T04:20:15;0.10;70.70
23633;DHT22;11993;48.748;9.166;2023-03-01T04:22:50;0.00;71.30
23633;DHT22;11993;48.748;9.166;2023-03-01T04:25:16;0.10;70.60
23633;DHT22;11993;48.748;9.166;2023-03-01T04:27:41;0.10;70.90
23633;DHT22;11993;48.748;9.166;2023-03-01T04:30:08;0.00;71.10
23633;DHT22;11993;48.748;9.166;2023-03-01T04:32:33;0.20;70.80
23633;DHT22;11993;48.748;9.166;2023-03-01T04:34:59;0.20;70.50
23633;DHT22;11993;48.748;9.166;2023-03-01T04:37:26;0.10;70.50
23633;DHT22;11993;48.748;9.166;2023-03-01T04:39:51;0.00;70.90
23633;DHT22;11993;48.748;9.166;2023-03-01T04:42:17;0.10;70.40
23633;DHT22;11993;48.748;9.166;2023-03-01T04:44:43;0.00;71.10
23633;DHT22;11993;48.748;9.166;2023-03-01T04:47:09;0.10;70.80
23633;DHT22;11993;48.748;9.166;2023-03-01T04:49:35;0.30;70.40
23633;DHT22;11993;48.748;9.166;2023-03-01T04:52:01;0.40;69.60
23633;DHT22;11993;48.748;9.166;2023-03-01T04:54:30;0.30;69.50
23633;DHT22;11993;48.748;9.166;2023-03-01T04:56:55;0.40;69.40
23633;DHT22;11993;48.748;9.166;2023-03-01T04:59:21;0.20;69.90
23633;DHT22;11993;48.748;9.166;2023-03-01T05:01:51;0.40;69.80
23633;DHT22;11993;48.748;9.166;2023-03-01T05:04:17;0.30;69.70
23633;DHT22;11993;48.748;9.166;2023-03-01T05:06:43;0.40;69.90
23633;DHT22;11993;48.748;9.166;2023-03-01T05:09:08;0.30;69.60
23633;DHT22;11993;48.748;9.166;2023-03-01T05:11:34;0.40;69.70
23633;DHT22;11993;48.748;9.166;2023-03-01T05:14:04;0.30;69.40
23633;DHT22;11993;48.748;9.166;2023-03-01T05:16:30;0.30;69.70
23633;DHT22;11993;48.748;9.166;2023-03-01T05:18:56;0.40;69.70
23633;DHT22;11993;48.748;9.166;2023-03-01T05:21:22;0.50;69.40
23633;DHT22;11993;48.748;9.166;2023-03-01T05:23:48;0.40;69.40
23633;DHT22;11993;48.748;9.166;2023-03-01T05:26:14;0.50;69.30
23633;DHT22;11993;48.748;9.166;2023-03-01T05:28:40;0.60;69.00
23633;DHT22;11993;48.748;9.166;2023-03-01T05:31:06;0.60;69.00
23633;DHT22;11993;48.748;9.166;2023-03-01T05:33:38;0.60;69.10
23633;DHT22;11993;48.748;9.166;2023-03-01T05:36:04;0.50;68.90
23633;DHT22;11993;48.748;9.166;2023-03-01T05:38:30;0.50;68.90
23633;DHT22;11993;48.748;9.166;2023-03-01T05:40:56;0.50;69.30
23633;DHT22;11993;48.748;9.166;2023-03-01T05:46:45;0.50;69.40
23633;DHT22;11993;48.748;9.166;2023-03-01T05:49:12;0.50;69.30
23633;DHT22;11993;48.748;9.166;2023-03-01T05:51:42;0.40;69.80
23633;DHT22;11993;48.748;9.166;2023-03-01T05:54:09;0.40;69.90
23633;DHT22;11993;48.748;9.166;2023-03-01T05:56:35;0.50;69.70
23633;DHT22;11993;48.748;9.166;2023-03-01T05:59:03;0.40;69.60
23633;DHT22;11993;48.748;9.166;2023-03-01T06:01:30;0.40;69.50
23633;DHT22;11993;48.748;9.166;2023-03-01T06:03:57;0.50;69.20
23633;DHT22;11993;48.748;9.166;2023-03-01T06:06:24;0.40;69.60
23633;DHT22;11993;48.748;9.166;2023-03-01T06:08:51;0.30;70.00
23633;DHT22;11993;48.748;9.166;2023-03-01T06:11:16;0.30;70.10
23633;DHT22;11993;48.748;9.166;2023-03-01T06:13:46;0.40;70.00
23633;DHT22;11993;48.748;9.166;2023-03-01T06:16:13;0.30;70.10
23633;DHT22;11993;48.748;9.166;2023-03-01T06:18:41;0.40;69.80
23633;DHT22;11993;48.748;9.166;2023-03-01T06:21:07;0.30;70.40
23633;DHT22;11993;48.748;9.166;2023-03-01T06:23:34;0.30;70.90
23633;DHT22;11993;48.748;9.166;2023-03-01T06:26:05;0.40;70.80
23633;DHT22;11993;48.748;9.166;2023-03-01T06:28:31;0.50;70.60
23633;DHT22;11993;48.748;9.166;2023-03-01T06:30:56;0.60;69.60
23633;DHT22;11993;48.748;9.166;2023-03-01T06:33:23;0.50;70.00
23633;DHT22;11993;48.748;9.166;2023-03-01T06:35:50;0.60;69.90
23633;DHT22;11993;48.748;9.166;2023-03-01T06:38:15;0.60;69.90
23633;DHT22;11993;48.748;9.166;2023-03-01T06:40:42;0.70;69.70
23633;DHT22;11993;48.748;9.166;2023-03-01T06:43:08;0.70;70.10
23633;DHT22;11993;48.748;9.166;2023-03-01T06:45:33;0.70;70.90
23633;DHT22;11993;48.748;9.166;2023-03-01T06:48:06;0.90;69.60
23633;DHT22;11993;48.748;9.166;2023-03-01T06:50:32;0.90;69.10
23633;DHT22;11993;48.748;9.166;2023-03-01T06:52:58;1.10;69.00
23633;DHT22;11993;48.748;9.166;2023-03-01T06:55:25;1.00;69.10
23633;DHT22;11993;48.748;9.166;2023-03-01T06:58:00;1.10;68.30
23633;DHT22;11993;48.748;9.166;2023-03-01T07:00:26;1.10;68.80
23633;DHT22;11993;48.748;9.166;2023-03-01T07:02:52;1.10;68.70
23633;DHT22;11993;48.748;9.166;2023-03-01T07:05:18;1.20;69.70
23633;DHT22;11993;48.748;9.166;2023-03-01T07:07:44;1.40;68.20
23633;DHT22;11993;48.748;9.166;2023-03-01T07:10:10;1.30;68.00
23633;DHT22;11993;48.748;9.166;2023-03-01T07:12:36;1.40;66.70
23633;DHT22;11993;48.748;9.166;2023-03-01T07:15:02;1.40;67.30
23633;DHT22;11993;48.748;9.166;2023-03-01T07:17:28;1.50;66.40
23633;DHT22;11993;48.748;9.166;2023-03-01T07:19:54;1.60;66.10
23633;DHT22;11993;48.748;9.166;2023-03-01T07:22:20;1.80;65.50
23633;DHT22;11993;48.748;9.166;2023-03-01T07:24:45;1.90;64.70
23633;DHT22;11993;48.748;9.166;2023-03-01T07:27:12;2.10;64.50
23633;DHT22;11993;48.748;9.166;2023-03-01T07:29:39;2.20;63.80
23633;DHT22;11993;48.748;9.166;2023-03-01T07:32:05;2.40;63.50
23633;DHT22;11993;48.748;9.166;2023-03-01T07:34:31;2.30;63.50
23633;DHT22;11993;48.748;9.166;2023-03-01T07:36:56;2.50;63.10
23633;DHT22;11993;48.748;9.166;2023-03-01T07:39:22;2.70;63.00
23633;DHT22;11993;48.748;9.166;2023-03-01T07:41:51;2.80;62.00
23633;DHT22;11993;48.748;9.166;2023-03-01T07:44:16;2.80;61.70
23633;DHT22;11993;48.748;9.166;2023-03-01T07:46:42;2.70;61.80
23633;DHT22;11993;48.748;9.166;2023-03-01T07:49:08;2.90;61.00
23633;DHT22;11993;48.748;9.166;2023-03-01T07:51:34;3.00;61.10
23633;DHT22;11993;48.748;9.166;2023-03-01T07:53:59;2.90;61.00
23633;DHT22;11993;48.748;9.166;2023-03-01T07:56:25;2.90;61.70
23633;DHT22;11993;48.748;9.166;2023-03-01T07:58:50;3.10;60.90
23633;DHT22;11993;48.748;9.166;2023-03-01T08:01:19;3.20;60.50
23633;DHT22;11993;48.748;9.166;2023-03-01T08:03:47;3.40;60.20
23633;DHT22;11993;48.748;9.166;2023-03-01T08:06:15;3.50;60.50
23633;DHT22;11993;48.748;9.166;2023-03-01T08:08:41;3.50;59.30
23633;DHT22;11993;48.748;9.166;2023-03-01T08:11:09;3.40;59.90
23633;DHT22;11993;48.748;9.166;2023-03-01T08:13:35;3.20;59.30
23633;DHT22;11993;48.748;9.166;2023-03-01T08:16:08;3.60;59.30
23633;DHT22;11993;48.748;9.166;2023-03-01T08:18:35;3.60;59.00
23633;DHT22;11993;48.748;9.166;2023-03-01T08:21:05;3.70;58.20
23633;DHT22;11993;48.748;9.166;2023-03-01T08:23:31;3.90;58.20
23633;DHT22;11993;48.748;9.166;2023-03-01T08:26:15;4.30;57.10
23633;DHT22;11993;48.748;9.166;2023-03-01T08:28:41;4.10;57.10
23633;DHT22;11993;48.748;9.166;2023-03-01T08:31:21;4.30;57.10
23633;DHT22;11993;48.748;9.166;2023-03-01T08:33:48;4.20;56.40
23633;DHT22;11993;48.748;9.166;2023-03-01T08:36:16;4.30;56.50
23633;DHT22;11993;48.748;9.166;2023-03-01T08:38:42;4.40;56.80
23633;DHT22;11993;48.748;9.166;2023-03-01T08:41:08;4.50;56.30
23633;DHT22;11993;48.748;9.166;2023-03-01T08:43:33;4.80;56.20
23633;DHT22;11993;48.748;9.166;2023-03-01T08:45:59;5.20;54.80
23633;DHT22;11993;48.748;9.166;2023-03-01T08:48:27;5.20;53.40
23633;DHT22;11993;48.748;9.166;2023-03-01T08:50:53;5.10;54.60
23633;DHT22;11993;48.748;9.166;2023-03-01T08:53:19;5.40;53.90
23633;DHT22;11993;48.748;9.166;2023-03-01T08:55:44;5.30;54.60
23633;DHT22;11993;48.748;9.166;2023-03-01T08:58:10;5.40;53.20
23633;DHT22;11993;48.748;9.166;2023-03-01T09:00:35;5.40;53.60
23633;DHT22;11993;48.748;9.166;2023-03-01T09:03:01;5.30;54.40
23633;DHT22;11993;48.748;9.166;2023-03-01T09:05:27;5.60;53.50
23633;DHT22;11993;48.748;9.166;2023-03-01T09:07:52;5.60;53.20
23633;DHT22;11993;48.748;9.166;2023-03-01T09:10:18;5.90;52.90
23633;DHT22;11993;48.748;9.166;2023-03-01T09:12:43;6.30;51.90
23633;DHT22;11993;48.748;9.166;2023-03-01T09:15:09;6.20;52.00
23633;DHT22;11993;48.748;9.166;2023-03-01T09:17:35;6.60;50.00
23633;DHT22;11993;48.748;9.166;2023-03-01T09:20:00;6.50;51.00
23633;DHT22;11993;48.748;9.166;2023-03-01T09:22:26;6.70;50.80
23633;DHT22;11993;48.748;9.166;2023-03-01T09:24:51;7.00;49.90
23633;DHT22;11993;48.748;9.166;2023-03-01T09:27:17;7.50;48.50
23633;DHT22;11993;48.748;9.166;2023-03-01T09:29:44;7.30;47.50
23633;DHT22;11993;48.748;9.166;2023-03-01T09:32:10;7.20;48.80
23633;DHT22;11993;48.748;9.166;2023-03-01T09:34:36;7.70;49.60
23633;DHT22;11993;48.748;9.166;2023-03-01T09:37:21;7.90;47.80
23633;DHT22;11993;48.748;9.166;2023-03-01T09:39:47;7.90;47.60
23633;DHT22;11993;48.748;9.166;2023-03-01T09:42:13;7.70;48.10
23633;DHT22;11993;48.748;9.166;2023-03-01T09:44:59;7.80;47.70
23633;DHT22;11993;48.748;9.166;2023-03-01T09:47:38;8.10;47.50
23633;DHT22;11993;48.748;9.166;2023-03-01T09:50:14;8.60;45.60
23633;DHT22;11993;48.748;9.166;2023-03-01T09:52:54;8.40;46.40
23633;DHT22;11993;48.748;9.166;2023-03-01T09:55:45;8.90;44.70
23633;DHT22;11993;48.748;9.166;2023-03-01T09:58:27;9.10;43.70
23633;DHT22;11993;48.748;9.166;2023-03-01T10:00:56;9.20;43.30
23633;DHT22;11993;48.748;9.166;2023-03-01T10:03:36;8.70;43.60
23633;DHT22;11993;48.748;9.166;2023-03-01T10:06:18;8.60;44.20
23633;DHT22;11993;48.748;9.166;2023-03-01T10:08:53;8.90;43.40
23633;DHT22;11993;48.748;9.166;2023-03-01T10:11:33;9.40;43.10
23633;DHT22;11993;48.748;9.166;2023-03-01T10:14:09;9.40;42.50
23633;DHT22;11993;48.748;9.166;2023-03-01T10:16:48;9.70;42.30
23633;DHT22;11993;48.748;9.166;2023-03-01T10:19:32;9.70;42.70
23633;DHT22;11993;48.748;9.166;2023-03-01T10:22:18;9.20;42.90
23633;DHT22;11993;48.748;9.166;2023-03-01T10:24:51;9.20;42.60
23633;DHT22;11993;48.748;9.166;2023-03-01T10:30:29;9.90;41.20
23633;DHT22;11993;48.748;9.166;2023-03-01T10:32:58;9.50;42.00
23633;DHT22;11993;48.748;9.166;2023-03-01T10:35:29;9.70;42.60
23633;DHT22;11993;48.748;9.166;2023-03-01T10:38:07;10.20;41.00
23633;DHT22;11993;48.748;9.166;2023-03-01T10:40:35;9.00;42.80
23633;DHT22;11993;48.748;9.166;2023-03-01T10:43:03;9.10;43.00
23633;DHT22;11993;48.748;9.166;2023-03-01T10:45:31;9.10;42.30
23633;DHT22;11993;48.748;9.166;2023-03-01T10:48:12;9.20;42.90
23633;DHT22;11993;48.748;9.166;2023-03-01T10:50:39;9.80;41.80
23633;DHT22;11993;48.748;9.166;2023-03-01T10:53:21;10.10;41.10
23633;DHT22;11993;48.748;9.166;2023-03-01T10:55:57;11.10;39.10
23633;DHT22;11993;48.748;9.166;2023-03-01T10:58:23;10.80;38.70
23633;DHT22;11993;48.748;9.166;2023-03-01T11:00:56;10.30;40.10
23633;DHT22;11993;48.748;9.166;2023-03-01T11:05:59;11.50;38.80
23633;DHT22;11993;48.748;9.166;2023-03-01T11:08:35;11.00;38.90
23633;DHT22;11993;48.748;9.166;2023-03-01T11:11:05;10.80;39.50
23633;DHT22;11993;48.748;9.166;2023-03-01T11:13:31;11.40;39.10
23633;DHT22;11993;48.748;9.166;2023-03-01T11:16:02;11.50;37.60
23633;DHT22;11993;48.748;9.166;2023-03-01T11:18:30;10.90;39.50
23633;DHT22;11993;48.748;9.166;2023-03-01T11:20:58;10.00;41.30
23633;DHT22;11993;48.748;9.166;2023-03-01T11:23:25;11.10;38.90
23633;DHT22;11993;48.748;9.166;2023-03-01T11:25:59;11.60;37.30
23633;DHT22;11993;48.748;9.166;2023-03-01T11:28:28;11.60;38.20
23633;DHT22;11993;48.748;9.166;2023-03-01T11:31:06;11.30;38.40
23633;DHT22;11993;48.748;9.166;2023-03-01T11:33:50;11.50;38.40
23633;DHT22;11993;48.748;9.166;2023-03-01T11:38:53;12.20;36.80
23633;DHT22;11993;48.748;9.166;2023-03-01T11:41:28;12.40;36.40
23633;DHT22;11993;48.748;9.166;2023-03-01T11:44:01;12.60;36.10
23633;DHT22;11993;48.748;9.166;2023-03-01T11:49:32;12.20;37.30
23633;DHT22;11993;48.748;9.166;2023-03-01T11:52:42;12.30;36.70
23633;DHT22;11993;48.748;9.166;2023-03-01T12:03:56;12.90;36.10
23633;DHT22;11993;48.748;9.166;2023-03-01T12:15:46;13.30;35.40
23633;DHT22;11993;48.748;9.166;2023-03-01T12:21:21;13.20;34.80
23633;DHT22;11993;48.748;9.166;2023-03-01T12:27:21;13.40;34.90
23633;DHT22;11993;48.748;9.166;2023-03-01T12:33:20;13.30;36.30
23633;DHT22;11993;48.748;9.166;2023-03-01T12:36:03;14.20;34.40
23633;DHT22;11993;48.748;9.166;2023-03-01T12:38:50;13.90;34.50
23633;DHT22;11993;48.748;9.166;2023-03-01T12:49:53;12.90;35.90
23633;DHT22;11993;48.748;9.166;2023-03-01T12:52:38;13.80;35.30
23633;DHT22;11993;48.748;9.166;2023-03-01T12:55:26;14.00;34.60
23633;DHT22;11993;48.748;9.166;2023-03-01T13:03:42;13.10;35.50
23633;DHT22;11993;48.748;9.166;2023-03-01T13:06:39;13.90;34.30
23633;DHT22;11993;48.748;9.166;2023-03-01T13:09:14;14.10;34.90
23633;DHT22;11993;48.748;9.166;2023-03-01T13:11:45;14.40;33.20
23633;DHT22;11993;48.748;9.166;2023-03-01T13:16:47;14.90;32.80
23633;DHT22;11993;48.748;9.166;2023-03-01T13:19:23;14.60;33.80
23633;DHT22;11993;48.748;9.166;2023-03-01T13:21:50;14.70;32.70
23633;DHT22;11993;48.748;9.166;2023-03-01T13:24:43;15.00;33.50
23633;DHT22;11993;48.748;9.166;2023-03-01T13:29:44;14.60;33.50
23633;DHT22;11993;48.748;9.166;2023-03-01T13:35:02;15.30;32.70
23633;DHT22;11993;48.748;9.166;2023-03-01T13:37:33;14.20;33.70
23633;DHT22;11993;48.748;9.166;2023-03-01T13:40:02;14.60;33.40
23633;DHT22;11993;48.748;9.166;2023-03-01T13:42:34;14.60;33.20
23633;DHT22;11993;48.748;9.166;2023-03-01T13:45:45;14.20;34.60
23633;DHT22;11993;48.748;9.166;2023-03-01T13:47:58;14.70;34.10
23633;DHT22;11993;48.748;9.166;2023-03-01T13:50:29;15.30;32.70
23633;DHT22;11993;48.748;9.166;2023-03-01T13:52:59;15.30;31.80
23633;DHT22;11993;48.748;9.166;2023-03-01T13:55:40;14.70;32.40
23633;DHT22;11993;48.748;9.166;2023-03-01T14:00:42;13.70;34.40
23633;DHT22;11993;48.748;9.166;2023-03-01T14:03:16;14.20;34.40
23633;DHT22;11993;48.748;9.166;2023-03-01T14:08:25;12.80;36.50
23633;DHT22;11993;48.748;9.166;2023-03-01T14:11:02;12.90;36.80
23633;DHT22;11993;48.748;9.166;2023-03-01T14:13:36;13.80;35.80
23633;DHT22;11993;48.748;9.166;2023-03-01T14:16:27;14.00;34.40
23633;DHT22;11993;48.748;9.166;2023-03-01T14:19:16;14.40;33.80
23633;DHT22;11993;48.748;9.166;2023-03-01T14:21:43;13.60;35.20
23633;DHT22;11993;48.748;9.166;2023-03-01T14:24:20;13.30;35.70
23633;DHT22;11993;48.748;9.166;2023-03-01T14:26:46;13.10;37.00
23633;DHT22;11993;48.748;9.166;2023-03-01T14:29:36;13.80;35.50
23633;DHT22;11993;48.748;9.166;2023-03-01T14:32:19;14.20;35.00
23633;DHT22;11993;48.748;9.166;2023-03-01T14:34:48;12.80;37.00
23633;DHT22;11993;48.748;9.166;2023-03-01T14:39:45;13.10;37.00
23633;DHT22;11993;48.748;9.166;2023-03-01T14:42:12;13.60;35.90
23633;DHT22;11993;48.748;9.166;2023-03-01T14:44:42;13.60;35.80
23633;DHT22;11993;48.748;9.166;2023-03-01T14:47:19;13.50;36.20
23633;DHT22;11993;48.748;9.166;2023-03-01T14:49:50;12.90;36.60
23633;DHT22;11993;48.748;9.166;2023-03-01T14:52:26;12.50;37.50
23633;DHT22;11993;48.748;9.166;2023-03-01T14:54:54;12.70;37.10
23633;DHT22;11993;48.748;9.166;2023-03-01T14:57:26;13.30;36.60
23633;DHT22;11993;48.748;9.166;2023-03-01T14:59:58;13.10;36.30
23633;DHT22;11993;48.748;9.166;2023-03-01T15:02:26;12.50;37.60
23633;DHT22;11993;48.748;9.166;2023-03-01T15:04:55;12.50;37.60
23633;DHT22;11993;48.748;9.166;2023-03-01T15:07:29;13.40;36.60
23633;DHT22;11993;48.748;9.166;2023-03-01T15:09:57;13.60;35.80
23633;DHT22;11993;48.748;9.166;2023-03-01T15:14:56;13.30;35.40
23633;DHT22;11993;48.748;9.166;2023-03-01T15:17:36;13.80;35.90
23633;DHT22;11993;48.748;9.166;2023-03-01T15:20:06;12.60;37.30
23633;DHT22;11993;48.748;9.166;2023-03-01T15:22:32;12.20;38.20
23633;DHT22;11993;48.748;9.166;2023-03-01T15:24:58;12.00;38.80
23633;DHT22;11993;48.748;9.166;2023-03-01T15:27:25;12.10;38.60
23633;DHT22;11993;48.748;9.166;2023-03-01T15:29:59;12.10;38.70
23633;DHT22;11993;48.748;9.166;2023-03-01T15:32:29;12.30;38.30
23633;DHT22;11993;48.748;9.166;2023-03-01T15:34:56;11.90;39.30
23633;DHT22;11993;48.748;9.166;2023-03-01T15:37:48;12.10;38.80
23633;DHT22;11993;48.748;9.166;2023-03-01T15:40:27;11.90;38.80
23633;DHT22;11993;48.748;9.166;2023-03-01T15:42:59;12.30;38.60
23633;DHT22;11993;48.748;9.166;2023-03-01T15:45:27;12.00;38.70
23633;DHT22;11993;48.748;9.166;2023-03-01T15:47:59;11.80;38.80
23633;DHT22;11993;48.748;9.166;2023-03-01T15:52:57;11.10;40.60
23633;DHT22;11993;48.748;9.166;2023-03-01T15:55:27;11.30;39.70
23633;DHT22;11993;48.748;9.166;2023-03-01T15:58:01;11.30;39.90
23633;DHT22;11993;48.748;9.166;2023-03-01T16:00:28;11.10;40.10
23633;DHT22;11993;48.748;9.166;2023-03-01T16:02:54;11.20;39.70
23633;DHT22;11993;48.748;9.166;2023-03-01T16:05:26;10.70;40.50
23633;DHT22;11993;48.748;9.166;2023-03-01T16:07:53;10.30;41.20
23633;DHT22;11993;48.748;9.166;2023-03-01T16:10:19;10.10;41.60
23633;DHT22;11993;48.748;9.166;2023-03-01T16:12:45;10.00;42.20
23633;DHT22;11993;48.748;9.166;2023-03-01T16:15:19;9.80;42.10
23633;DHT22;11993;48.748;9.166;2023-03-01T16:17:45;9.70;42.70
23633;DHT22;11993;48.748;9.166;2023-03-01T16:20:14;9.60;42.40
23633;DHT22;11993;48.748;9.166;2023-03-01T16:22:43;9.40;42.60
23633;DHT22;11993;48.748;9.166;2023-03-01T16:25:14;8.80;44.00
23633;DHT22;11993;48.748;9.166;2023-03-01T16:27:44;8.50;44.90
23633;DHT22;11993;48.748;9.166;2023-03-01T16:30:11;8.40;44.90
23633;DHT22;11993;48.748;9.166;2023-03-01T16:32:40;8.20;45.20
23633;DHT22;11993;48.748;9.166;2023-03-01T16:35:07;8.10;45.60
23633;DHT22;11993;48.748;9.166;2023-03-01T16:37:35;8.10;45.80
23633;DHT22;11993;48.748;9.166;2023-03-01T16:40:01;8.10;45.80
23633;DHT22;11993;48.748;9.166;2023-03-01T16:42:33;8.10;46.00
23633;DHT22;11993;48.748;9.166;2023-03-01T16:44:59;8.00;46.00
23633;DHT22;11993;48.748;9.166;2023-03-01T16:47:28;8.10;46.10
23633;DHT22;11993;48.748;9.166;2023-03-01T16:49:59;8.10;46.00
23633;DHT22;11993;48.748;9.166;2023-03-01T16:52:25;7.80;46.40
23633;DHT22;11993;48.748;9.166;2023-03-01T16:54:50;7.80;46.70
23633;DHT22;11993;48.748;9.166;2023-03-01T16:57:16;7.60;47.30
23633;DHT22;11993;48.748;9.166;2023-03-01T16:59:41;7.60;47.50
23633;DHT22;11993;48.748;9.166;2023-03-01T17:02:11;7.70;47.30
23633;DHT22;11993;48.748;9.166;2023-03-01T17:04:38;7.80;47.10
23633;DHT22;11993;48.748;9.166;2023-03-01T17:07:04;7.60;47.20
23633;DHT22;11993;48.748;9.166;2023-03-01T17:09:29;7.60;47.50
23633;DHT22;11993;48.748;9.166;2023-03-01T17:11:55;7.30;47.70
23633;DHT22;11993;48.748;9.166;2023-03-01T17:14:21;7.30;48.20
23633;DHT22;11993;48.748;9.166;2023-03-01T17:16:46;7.00;48.70